createdAt,value
2022-08-17T00:00:43.514Z,26.74
2022-08-17T00:01:22.542Z,26.72
2022-08-17T00:01:57.536Z,26.71
2022-08-17T00:02:34.359Z,26.70
2022-08-17T00:03:14.441Z,26.72
2022-08-17T00:03:46.339Z,26.71
2022-08-17T00:04:17.801Z,26.70
2022-08-17T00:04:50.697Z,26.70
2022-08-17T00:05:22.190Z,26.70
2022-08-17T00:06:00.457Z,26.72
2022-08-17T00:06:31.791Z,26.75
2022-08-17T00:07:03.099Z,26.73
2022-08-17T00:07:34.446Z,26.71
2022-08-17T00:08:05.744Z,26.71
2022-08-17T00:08:38.483Z,26.69
2022-08-17T00:09:09.777Z,26.70
2022-08-17T00:09:49.570Z,26.72
2022-08-17T00:10:20.847Z,26.71
2022-08-17T00:10:52.193Z,26.70
2022-08-17T00:11:25.000Z,26.70
2022-08-17T00:12:40.550Z,26.70
2022-08-17T00:12:47.618Z,26.72
2022-08-17T00:13:20.717Z,26.73
2022-08-17T00:13:55.137Z,26.77
2022-08-17T00:14:27.563Z,26.80
2022-08-17T00:14:58.856Z,26.81
2022-08-17T00:15:30.170Z,26.79
2022-08-17T00:16:02.895Z,26.75
2022-08-17T00:16:55.383Z,26.74
2022-08-17T00:17:26.621Z,26.73
2022-08-17T00:17:57.932Z,26.72
2022-08-17T00:19:06.139Z,26.74
2022-08-17T00:19:21.638Z,26.77
2022-08-17T00:19:52.946Z,26.82
2022-08-17T00:20:30.550Z,26.84
2022-08-17T00:21:05.448Z,26.78
2022-08-17T00:22:31.261Z,26.74
2022-08-17T00:22:36.421Z,26.72
2022-08-17T00:23:09.242Z,26.72
2022-08-17T00:23:44.291Z,26.73
2022-08-17T00:24:19.325Z,26.74
2022-08-17T00:24:50.674Z,26.73
2022-08-17T00:25:21.969Z,26.75
2022-08-17T00:25:53.301Z,26.74
2022-08-17T00:26:43.173Z,26.74
2022-08-17T00:27:16.112Z,26.74
2022-08-17T00:27:47.433Z,26.73
2022-08-17T00:28:18.722Z,26.73
2022-08-17T00:28:52.186Z,26.74
2022-08-17T00:29:23.544Z,26.71
2022-08-17T00:29:54.868Z,26.71
2022-08-17T00:30:26.172Z,26.71
2022-08-17T00:30:57.457Z,26.71
2022-08-17T00:31:28.762Z,26.76
2022-08-17T00:32:01.168Z,26.81
2022-08-17T00:33:23.032Z,26.81
2022-08-17T00:33:43.939Z,26.80
2022-08-17T00:34:15.242Z,26.82
2022-08-17T00:34:46.575Z,26.87
2022-08-17T00:35:18.108Z,26.85
2022-08-17T00:35:49.454Z,26.85
2022-08-17T00:36:20.742Z,26.85
2022-08-17T00:36:52.040Z,26.83
2022-08-17T00:37:23.316Z,26.81
2022-08-17T00:37:54.638Z,26.79
2022-08-17T00:38:26.091Z,26.80
2022-08-17T00:38:57.367Z,26.82
2022-08-17T00:39:28.747Z,26.80
2022-08-17T00:40:00.994Z,26.80
2022-08-17T00:40:40.797Z,26.84
2022-08-17T00:41:17.917Z,26.80
2022-08-17T00:41:50.269Z,26.76
2022-08-17T00:42:21.564Z,26.75
2022-08-17T00:42:52.842Z,26.76
2022-08-17T00:43:40.473Z,26.74
2022-08-17T00:44:11.762Z,26.75
2022-08-17T00:44:44.038Z,26.74
2022-08-17T00:45:15.989Z,26.75
2022-08-17T00:45:47.301Z,26.77
2022-08-17T00:46:22.565Z,26.77
2022-08-17T00:46:53.898Z,26.76
2022-08-17T00:47:25.242Z,26.80
2022-08-17T00:47:56.527Z,26.81
2022-08-17T00:48:29.931Z,26.80
2022-08-17T00:49:01.995Z,26.79
2022-08-17T00:49:33.290Z,26.79
2022-08-17T00:50:05.678Z,26.75
2022-08-17T00:50:36.949Z,26.71
2022-08-17T00:51:08.239Z,26.72
2022-08-17T00:51:58.196Z,26.69
2022-08-17T00:52:30.418Z,26.66
2022-08-17T00:53:01.868Z,26.67
2022-08-17T00:53:33.829Z,26.71
2022-08-17T00:54:11.220Z,26.74
2022-08-17T00:54:43.994Z,26.76
2022-08-17T00:55:15.282Z,26.73
2022-08-17T00:55:46.571Z,26.70
2022-08-17T00:56:19.430Z,26.69
2022-08-17T00:56:51.994Z,26.64
2022-08-17T00:57:24.496Z,26.64
2022-08-17T00:57:57.124Z,26.65
2022-08-17T00:58:35.425Z,26.63
2022-08-17T00:59:07.758Z,26.63
2022-08-17T00:59:40.281Z,26.64
2022-08-17T01:00:13.609Z,26.60
2022-08-17T01:00:45.598Z,26.61
2022-08-17T01:01:21.239Z,26.60
2022-08-17T01:01:53.309Z,26.59
2022-08-17T01:02:24.587Z,26.59
2022-08-17T01:02:57.370Z,26.58
2022-08-17T01:03:28.661Z,26.59
2022-08-17T01:04:00.169Z,26.58
2022-08-17T01:04:31.553Z,26.57
2022-08-17T01:05:02.869Z,26.57
2022-08-17T01:05:34.328Z,26.59
2022-08-17T01:06:05.741Z,26.59
2022-08-17T01:06:37.280Z,26.59
2022-08-17T01:07:08.870Z,26.59
2022-08-17T01:07:40.176Z,26.58
2022-08-17T01:08:12.359Z,26.58
2022-08-17T01:08:43.672Z,26.59
2022-08-17T01:09:17.782Z,26.60
2022-08-17T01:09:49.105Z,26.59
2022-08-17T01:10:57.608Z,26.60
2022-08-17T01:11:17.331Z,26.59
2022-08-17T01:11:48.637Z,26.58
2022-08-17T01:12:19.913Z,26.57
2022-08-17T01:12:51.347Z,26.57
2022-08-17T01:13:22.837Z,26.56
2022-08-17T01:13:54.205Z,26.58
2022-08-17T01:14:25.737Z,26.57
2022-08-17T01:14:57.058Z,26.57
2022-08-17T01:15:29.466Z,26.59
2022-08-17T01:16:09.840Z,26.58
2022-08-17T01:16:41.121Z,26.63
2022-08-17T01:17:12.427Z,26.66
2022-08-17T01:17:44.266Z,26.71
2022-08-17T01:18:15.552Z,26.74
2022-08-17T01:18:47.374Z,26.76
2022-08-17T01:19:19.735Z,26.74
2022-08-17T01:19:51.090Z,26.73
2022-08-17T01:20:22.406Z,26.69
2022-08-17T01:20:54.220Z,26.69
2022-08-17T01:21:31.697Z,26.67
2022-08-17T01:22:05.450Z,26.66
2022-08-17T01:22:36.748Z,26.67
2022-08-17T01:23:08.069Z,26.68
2022-08-17T01:23:39.414Z,26.70
2022-08-17T01:24:10.731Z,26.69
2022-08-17T01:24:46.015Z,26.70
2022-08-17T01:25:17.374Z,26.72
2022-08-17T01:25:53.035Z,26.72
2022-08-17T01:26:24.349Z,26.72
2022-08-17T01:26:56.578Z,26.70
2022-08-17T01:27:29.000Z,26.71
2022-08-17T01:28:00.288Z,26.69
2022-08-17T01:28:53.122Z,26.68
2022-08-17T01:29:23.453Z,26.64
2022-08-17T01:29:56.481Z,26.64
2022-08-17T01:30:56.963Z,26.66
2022-08-17T01:31:19.048Z,26.66
2022-08-17T01:31:52.245Z,26.71
2022-08-17T01:32:23.566Z,26.75
2022-08-17T01:32:54.887Z,26.76
2022-08-17T01:33:26.216Z,26.72
2022-08-17T01:33:58.355Z,26.70
2022-08-17T01:34:35.269Z,26.64
2022-08-17T01:35:15.150Z,26.65
2022-08-17T01:35:46.444Z,26.64
2022-08-17T01:36:17.742Z,26.63
2022-08-17T01:36:49.151Z,26.64
2022-08-17T01:37:21.044Z,26.66
2022-08-17T01:37:52.372Z,26.65
2022-08-17T01:38:27.073Z,26.67
2022-08-17T01:38:58.643Z,26.66
2022-08-17T01:39:31.605Z,26.65
2022-08-17T01:40:23.178Z,26.65
2022-08-17T01:40:57.466Z,26.64
2022-08-17T01:41:29.104Z,26.62
2022-08-17T01:42:18.157Z,26.63
2022-08-17T01:42:55.001Z,26.63
2022-08-17T01:43:27.040Z,26.63
2022-08-17T01:44:00.279Z,26.63
2022-08-17T01:44:31.586Z,26.61
2022-08-17T01:45:09.090Z,26.62
2022-08-17T01:45:44.457Z,26.61
2022-08-17T01:46:16.764Z,26.61
2022-08-17T01:46:48.069Z,26.61
2022-08-17T01:47:19.350Z,26.60
2022-08-17T01:47:51.129Z,26.59
2022-08-17T01:48:22.890Z,26.59
2022-08-17T01:48:54.279Z,26.59
2022-08-17T01:49:25.568Z,26.60
2022-08-17T01:49:56.869Z,26.60
2022-08-17T01:50:29.437Z,26.59
2022-08-17T01:51:00.723Z,26.56
2022-08-17T01:51:32.319Z,26.59
2022-08-17T01:52:12.411Z,26.57
2022-08-17T01:52:44.022Z,26.56
2022-08-17T01:53:19.180Z,26.57
2022-08-17T01:53:51.441Z,26.59
2022-08-17T01:54:22.727Z,26.58
2022-08-17T01:54:54.160Z,26.60
2022-08-17T01:55:28.655Z,26.62
2022-08-17T01:56:05.377Z,26.61
2022-08-17T01:56:37.180Z,26.62
2022-08-17T01:57:08.473Z,26.63
2022-08-17T01:57:39.762Z,26.64
2022-08-17T01:58:11.068Z,26.62
2022-08-17T01:58:42.408Z,26.64
2022-08-17T01:59:13.695Z,26.61
2022-08-17T01:59:46.657Z,26.60
2022-08-17T02:00:18.038Z,26.58
2022-08-17T02:01:01.328Z,26.59
2022-08-17T02:01:33.102Z,26.59
2022-08-17T02:02:04.914Z,26.61
2022-08-17T02:02:36.212Z,26.60
2022-08-17T02:03:07.505Z,26.63
2022-08-17T02:03:38.834Z,26.63
2022-08-17T02:04:10.136Z,26.63
2022-08-17T02:04:41.439Z,26.62
2022-08-17T02:05:12.744Z,26.64
2022-08-17T02:05:44.260Z,26.60
2022-08-17T02:06:27.792Z,26.61
2022-08-17T02:06:59.636Z,26.61
2022-08-17T02:07:31.770Z,26.57
2022-08-17T02:08:19.981Z,26.52
2022-08-17T02:09:02.992Z,26.51
2022-08-17T02:09:34.909Z,26.49
2022-08-17T02:10:20.187Z,26.48
2022-08-17T02:10:51.778Z,26.47
2022-08-17T02:11:23.920Z,26.47
2022-08-17T02:11:55.193Z,26.46
2022-08-17T02:12:37.603Z,26.46
2022-08-17T02:13:10.851Z,26.45
2022-08-17T02:13:44.360Z,26.46
2022-08-17T02:14:15.648Z,26.45
2022-08-17T02:14:46.936Z,26.45
2022-08-17T02:15:18.232Z,26.46
2022-08-17T02:15:49.512Z,26.46
2022-08-17T02:16:20.806Z,26.46
2022-08-17T02:16:52.129Z,26.47
2022-08-17T02:17:23.469Z,26.47
2022-08-17T02:17:55.008Z,26.47
2022-08-17T02:18:26.688Z,26.45
2022-08-17T02:18:58.033Z,26.45
2022-08-17T02:19:30.714Z,26.48
2022-08-17T02:20:02.044Z,26.51
2022-08-17T02:20:42.641Z,26.46
2022-08-17T02:21:14.270Z,26.47
2022-08-17T02:21:46.255Z,26.49
2022-08-17T02:22:17.579Z,26.53
2022-08-17T02:22:49.060Z,26.54
2022-08-17T02:23:20.509Z,26.55
2022-08-17T02:23:51.801Z,26.57
2022-08-17T02:25:00.252Z,26.60
2022-08-17T02:25:16.038Z,26.63
2022-08-17T02:25:47.335Z,26.63
2022-08-17T02:26:25.724Z,26.66
2022-08-17T02:26:57.709Z,26.63
2022-08-17T02:27:29.095Z,26.64
2022-08-17T02:28:00.559Z,26.62
2022-08-17T02:28:31.882Z,26.58
2022-08-17T02:29:03.225Z,26.60
2022-08-17T02:29:34.562Z,26.57
2022-08-17T02:30:06.285Z,26.54
2022-08-17T02:31:00.816Z,26.55
2022-08-17T02:31:34.391Z,26.57
2022-08-17T02:32:05.787Z,26.54
2022-08-17T02:32:37.074Z,26.52
2022-08-17T02:33:09.357Z,26.49
2022-08-17T02:33:42.503Z,26.51
2022-08-17T02:34:14.668Z,26.48
2022-08-17T02:34:45.967Z,26.46
2022-08-17T02:35:19.381Z,26.45
2022-08-17T02:35:53.509Z,26.43
2022-08-17T02:36:27.400Z,26.45
2022-08-17T02:36:58.924Z,26.45
2022-08-17T02:37:30.225Z,26.46
2022-08-17T02:38:01.657Z,26.44
2022-08-17T02:38:33.010Z,26.43
2022-08-17T02:39:05.034Z,26.43
2022-08-17T02:39:36.375Z,26.45
2022-08-17T02:40:07.962Z,26.43
2022-08-17T02:40:39.652Z,26.44
2022-08-17T02:41:10.944Z,26.46
2022-08-17T02:41:42.235Z,26.46
2022-08-17T02:42:13.779Z,26.46
2022-08-17T02:42:45.150Z,26.46
2022-08-17T02:43:16.436Z,26.46
2022-08-17T02:43:47.763Z,26.45
2022-08-17T02:44:39.256Z,26.46
2022-08-17T02:45:17.222Z,26.45
2022-08-17T02:45:48.519Z,26.48
2022-08-17T02:46:19.851Z,26.45
2022-08-17T02:46:51.153Z,26.45
2022-08-17T02:47:22.584Z,26.44
2022-08-17T02:47:53.893Z,26.43
2022-08-17T02:48:30.778Z,26.45
2022-08-17T02:49:03.623Z,26.44
2022-08-17T02:49:34.913Z,26.44
2022-08-17T02:50:06.580Z,26.46
2022-08-17T02:50:37.866Z,26.46
2022-08-17T02:51:09.186Z,26.44
2022-08-17T02:51:40.502Z,26.45
2022-08-17T02:52:11.827Z,26.44
2022-08-17T02:52:44.156Z,26.44
2022-08-17T02:53:18.726Z,26.44
2022-08-17T02:53:50.036Z,26.41
2022-08-17T02:54:40.852Z,26.43
2022-08-17T02:55:16.923Z,26.42
2022-08-17T02:55:48.224Z,26.43
2022-08-17T02:56:19.514Z,26.44
2022-08-17T02:56:50.818Z,26.45
2022-08-17T02:57:22.126Z,26.45
2022-08-17T02:57:53.448Z,26.46
2022-08-17T02:58:32.072Z,26.44
2022-08-17T02:59:06.912Z,26.42
2022-08-17T02:59:38.536Z,26.41
2022-08-17T03:00:10.978Z,26.43
2022-08-17T03:00:43.556Z,26.44
2022-08-17T03:01:14.896Z,26.43
2022-08-17T03:01:46.422Z,26.45
2022-08-17T03:02:17.781Z,26.47
2022-08-17T03:02:49.495Z,26.46
2022-08-17T03:03:20.961Z,26.49
2022-08-17T03:03:52.274Z,26.49
2022-08-17T03:04:23.599Z,26.49
2022-08-17T03:04:54.877Z,26.49
2022-08-17T03:05:26.947Z,26.47
2022-08-17T03:05:58.225Z,26.49
2022-08-17T03:06:29.515Z,26.50
2022-08-17T03:07:00.802Z,26.48
2022-08-17T03:07:32.089Z,26.53
2022-08-17T03:08:03.617Z,26.52
2022-08-17T03:08:34.906Z,26.52
2022-08-17T03:09:06.186Z,26.49
2022-08-17T03:09:37.496Z,26.51
2022-08-17T03:10:09.054Z,26.52
2022-08-17T03:10:40.601Z,26.51
2022-08-17T03:11:11.949Z,26.53
2022-08-17T03:11:43.249Z,26.54
2022-08-17T03:12:14.553Z,26.57
2022-08-17T03:12:45.873Z,26.56
2022-08-17T03:13:17.148Z,26.56
2022-08-17T03:13:48.445Z,26.57
2022-08-17T03:14:19.736Z,26.60
2022-08-17T03:14:57.594Z,26.56
2022-08-17T03:15:29.770Z,26.53
2022-08-17T03:16:01.088Z,26.54
2022-08-17T03:16:32.357Z,26.52
2022-08-17T03:17:04.780Z,26.51
2022-08-17T03:17:36.082Z,26.48
2022-08-17T03:18:07.446Z,26.45
2022-08-17T03:18:45.681Z,26.46
2022-08-17T03:19:16.990Z,26.47
2022-08-17T03:19:48.284Z,26.48
2022-08-17T03:20:20.178Z,26.46
2022-08-17T03:20:51.509Z,26.48
2022-08-17T03:21:22.819Z,26.49
2022-08-17T03:21:55.394Z,26.46
2022-08-17T03:22:36.540Z,26.46
2022-08-17T03:23:09.593Z,26.53
2022-08-17T03:23:41.037Z,26.50
2022-08-17T03:24:12.333Z,26.52
2022-08-17T03:24:43.688Z,26.52
2022-08-17T03:25:19.509Z,26.52
2022-08-17T03:25:54.186Z,26.55
2022-08-17T03:26:25.513Z,26.54
2022-08-17T03:27:01.156Z,26.51
2022-08-17T03:27:32.469Z,26.48
2022-08-17T03:28:04.141Z,26.47
2022-08-17T03:28:35.440Z,26.44
2022-08-17T03:29:06.736Z,26.42
2022-08-17T03:29:38.039Z,26.41
2022-08-17T03:30:09.536Z,26.41
2022-08-17T03:30:40.820Z,26.42
2022-08-17T03:31:12.129Z,26.41
2022-08-17T03:31:43.528Z,26.42
2022-08-17T03:32:15.322Z,26.40
2022-08-17T03:32:47.136Z,26.39
2022-08-17T03:33:18.606Z,26.40
2022-08-17T03:33:49.962Z,26.42
2022-08-17T03:34:21.254Z,26.44
2022-08-17T03:34:57.033Z,26.43
2022-08-17T03:35:29.572Z,26.42
2022-08-17T03:36:00.869Z,26.42
2022-08-17T03:36:32.175Z,26.41
2022-08-17T03:37:07.476Z,26.43
2022-08-17T03:37:38.805Z,26.43
2022-08-17T03:38:10.530Z,26.43
2022-08-17T03:38:41.798Z,26.41
2022-08-17T03:39:13.097Z,26.42
2022-08-17T03:39:44.455Z,26.42
2022-08-17T03:40:16.070Z,26.42
2022-08-17T03:41:07.339Z,26.45
2022-08-17T03:41:38.624Z,26.42
2022-08-17T03:42:14.329Z,26.42
2022-08-17T03:43:07.098Z,26.42
2022-08-17T03:43:38.397Z,26.44
2022-08-17T03:44:09.692Z,26.43
2022-08-17T03:44:40.986Z,26.42
2022-08-17T03:45:15.422Z,26.41
2022-08-17T03:45:46.921Z,26.35
2022-08-17T03:46:28.636Z,26.39
2022-08-17T03:47:06.764Z,26.45
2022-08-17T03:47:38.054Z,26.49
2022-08-17T03:48:12.631Z,26.53
2022-08-17T03:48:43.929Z,26.54
2022-08-17T03:49:15.252Z,26.54
2022-08-17T03:49:46.538Z,26.52
2022-08-17T03:50:18.370Z,26.50
2022-08-17T03:50:49.737Z,26.49
2022-08-17T03:51:21.839Z,26.51
2022-08-17T03:51:53.674Z,26.48
2022-08-17T03:52:24.998Z,26.48
2022-08-17T03:52:56.378Z,26.47
2022-08-17T03:53:27.788Z,26.45
2022-08-17T03:53:59.063Z,26.46
2022-08-17T03:54:30.351Z,26.45
2022-08-17T03:55:01.620Z,26.47
2022-08-17T03:55:36.013Z,26.47
2022-08-17T03:56:07.778Z,26.45
2022-08-17T03:56:39.091Z,26.43
2022-08-17T03:57:10.677Z,26.44
2022-08-17T03:57:42.003Z,26.44
2022-08-17T03:58:13.360Z,26.45
2022-08-17T03:58:44.903Z,26.45
2022-08-17T03:59:21.213Z,26.45
2022-08-17T03:59:53.947Z,26.45
2022-08-17T04:00:25.245Z,26.45
2022-08-17T04:00:56.728Z,26.46
2022-08-17T04:01:28.104Z,26.43
2022-08-17T04:02:01.210Z,26.46
2022-08-17T04:02:32.706Z,26.46
2022-08-17T04:03:03.989Z,26.47
2022-08-17T04:03:35.303Z,26.48
2022-08-17T04:04:06.629Z,26.52
2022-08-17T04:04:37.935Z,26.52
2022-08-17T04:05:09.265Z,26.46
2022-08-17T04:05:40.657Z,26.43
2022-08-17T04:06:11.957Z,26.43
2022-08-17T04:06:43.238Z,26.41
2022-08-17T04:07:14.552Z,26.39
2022-08-17T04:07:45.834Z,26.39
2022-08-17T04:08:17.328Z,26.38
2022-08-17T04:08:48.672Z,26.37
2022-08-17T04:09:20.003Z,26.40
2022-08-17T04:09:51.285Z,26.41
2022-08-17T04:10:25.986Z,26.43
2022-08-17T04:10:57.805Z,26.42
2022-08-17T04:11:29.117Z,26.45
2022-08-17T04:12:02.396Z,26.45
2022-08-17T04:12:43.400Z,26.43
2022-08-17T04:13:14.779Z,26.43
2022-08-17T04:13:46.171Z,26.42
2022-08-17T04:14:17.460Z,26.40
2022-08-17T04:14:53.245Z,26.41
2022-08-17T04:15:25.613Z,26.39
2022-08-17T04:15:56.915Z,26.37
2022-08-17T04:16:28.378Z,26.34
2022-08-17T04:16:59.685Z,26.38
2022-08-17T04:17:30.998Z,26.38
2022-08-17T04:18:02.287Z,26.37
2022-08-17T04:18:33.659Z,26.37
2022-08-17T04:19:05.102Z,26.37
2022-08-17T04:19:36.421Z,26.37
2022-08-17T04:20:07.952Z,26.36
2022-08-17T04:20:39.415Z,26.36
2022-08-17T04:21:10.764Z,26.36
2022-08-17T04:21:42.091Z,26.36
2022-08-17T04:22:32.344Z,26.35
2022-08-17T04:23:06.380Z,26.36
2022-08-17T04:23:37.675Z,26.36
2022-08-17T04:24:08.947Z,26.37
2022-08-17T04:24:40.284Z,26.38
2022-08-17T04:25:15.291Z,26.37
2022-08-17T04:25:47.437Z,26.36
2022-08-17T04:26:52.457Z,26.38
2022-08-17T04:27:10.060Z,26.43
2022-08-17T04:27:41.349Z,26.46
2022-08-17T04:28:16.166Z,26.45
2022-08-17T04:28:47.819Z,26.51
2022-08-17T04:29:19.204Z,26.53
2022-08-17T04:29:54.741Z,26.51
2022-08-17T04:30:27.107Z,26.53
2022-08-17T04:30:58.686Z,26.54
2022-08-17T04:31:29.983Z,26.53
2022-08-17T04:32:01.962Z,26.49
2022-08-17T04:33:03.837Z,26.50
2022-08-17T04:33:26.570Z,26.48
2022-08-17T04:33:57.878Z,26.48
2022-08-17T04:34:29.198Z,26.48
2022-08-17T04:35:00.496Z,26.43
2022-08-17T04:35:32.392Z,26.45
2022-08-17T04:36:04.114Z,26.47
2022-08-17T04:36:35.496Z,26.43
2022-08-17T04:37:06.812Z,26.39
2022-08-17T04:37:38.122Z,26.42
2022-08-17T04:38:10.164Z,26.43
2022-08-17T04:38:42.107Z,26.42
2022-08-17T04:39:13.418Z,26.39
2022-08-17T04:39:44.777Z,26.39
2022-08-17T04:40:16.452Z,26.38
2022-08-17T04:40:47.831Z,26.38
2022-08-17T04:41:19.128Z,26.36
2022-08-17T04:41:50.404Z,26.35
2022-08-17T04:42:21.725Z,26.36
2022-08-17T04:43:03.167Z,26.35
2022-08-17T04:43:34.660Z,26.31
2022-08-17T04:44:05.955Z,26.33
2022-08-17T04:44:38.174Z,26.33
2022-08-17T04:45:09.746Z,26.36
2022-08-17T04:45:55.204Z,26.34
2022-08-17T04:46:28.714Z,26.33
2022-08-17T04:46:59.996Z,26.34
2022-08-17T04:47:31.293Z,26.34
2022-08-17T04:48:02.693Z,26.31
2022-08-17T04:48:36.150Z,26.33
2022-08-17T04:49:09.686Z,26.35
2022-08-17T04:49:40.946Z,26.34
2022-08-17T04:50:12.249Z,26.37
2022-08-17T04:50:44.238Z,26.34
2022-08-17T04:51:21.837Z,26.33
2022-08-17T04:51:56.147Z,26.30
2022-08-17T04:52:29.675Z,26.29
2022-08-17T04:53:18.923Z,26.30
2022-08-17T04:53:54.521Z,26.30
2022-08-17T04:54:26.422Z,26.31
2022-08-17T04:54:57.696Z,26.30
2022-08-17T04:55:28.985Z,26.31
2022-08-17T04:56:00.323Z,26.29
2022-08-17T04:56:31.699Z,26.28
2022-08-17T04:57:02.983Z,26.30
2022-08-17T04:57:39.485Z,26.33
2022-08-17T04:58:13.183Z,26.30
2022-08-17T04:58:44.971Z,26.34
2022-08-17T04:59:17.299Z,26.36
2022-08-17T04:59:48.622Z,26.42
2022-08-17T05:00:20.134Z,26.45
2022-08-17T05:00:51.509Z,26.44
2022-08-17T05:01:24.527Z,26.44
2022-08-17T05:01:56.062Z,26.47
2022-08-17T05:02:27.329Z,26.47
2022-08-17T05:02:58.644Z,26.41
2022-08-17T05:03:29.975Z,26.42
2022-08-17T05:04:32.964Z,26.39
2022-08-17T05:04:53.655Z,26.32
2022-08-17T05:05:31.139Z,26.33
2022-08-17T05:06:02.473Z,26.32
2022-08-17T05:06:33.773Z,26.33
2022-08-17T05:07:05.098Z,26.34
2022-08-17T05:07:36.421Z,26.33
2022-08-17T05:08:07.737Z,26.34
2022-08-17T05:08:39.110Z,26.33
2022-08-17T05:09:10.474Z,26.30
2022-08-17T05:09:41.760Z,26.30
2022-08-17T05:10:13.048Z,26.29
2022-08-17T05:10:45.327Z,26.29
2022-08-17T05:11:17.077Z,26.29
2022-08-17T05:11:48.359Z,26.31
2022-08-17T05:12:19.636Z,26.31
2022-08-17T05:13:00.735Z,26.31
2022-08-17T05:13:32.057Z,26.30
2022-08-17T05:14:03.407Z,26.30
2022-08-17T05:14:34.715Z,26.29
2022-08-17T05:15:06.923Z,26.29
2022-08-17T05:15:38.697Z,26.29
2022-08-17T05:16:16.331Z,26.33
2022-08-17T05:16:47.631Z,26.33
2022-08-17T05:17:18.914Z,26.33
2022-08-17T05:17:50.235Z,26.36
2022-08-17T05:18:21.590Z,26.39
2022-08-17T05:18:55.815Z,26.39
2022-08-17T05:19:27.110Z,26.38
2022-08-17T05:22:07.280Z,26.40
2022-08-17T05:22:58.174Z,26.38
2022-08-17T05:23:53.937Z,26.41
2022-08-17T05:24:53.426Z,26.45
2022-08-17T05:25:41.326Z,26.43
2022-08-17T05:26:31.921Z,26.49
2022-08-17T05:27:23.643Z,26.48
2022-08-17T05:28:16.771Z,26.49
2022-08-17T05:29:08.380Z,26.51
2022-08-17T05:29:59.262Z,26.48
2022-08-17T05:30:48.680Z,26.42
2022-08-17T05:31:40.222Z,26.42
2022-08-17T05:32:38.121Z,26.39
2022-08-17T05:34:38.673Z,26.30
2022-08-17T05:35:31.918Z,26.33
2022-08-17T05:39:47.963Z,26.43
2022-08-17T05:40:40.581Z,26.48
2022-08-17T05:41:28.879Z,26.53
2022-08-17T05:42:13.401Z,26.52
2022-08-17T05:42:56.361Z,26.49
2022-08-17T05:44:47.157Z,26.42
2022-08-17T05:45:39.891Z,26.44
2022-08-17T05:46:32.776Z,26.49
2022-08-17T05:47:09.842Z,26.50
2022-08-17T05:47:46.667Z,26.49
2022-08-17T05:48:39.272Z,26.47
2022-08-17T05:51:09.820Z,26.42
2022-08-17T05:52:04.721Z,26.39
2022-08-17T05:53:04.335Z,26.45
2022-08-17T05:53:43.035Z,26.46
2022-08-17T05:54:35.402Z,26.48
2022-08-17T05:55:19.539Z,26.46
2022-08-17T05:56:22.700Z,26.47
2022-08-17T05:57:17.874Z,26.47
2022-08-17T05:58:02.452Z,26.46
2022-08-17T06:01:55.528Z,26.40
2022-08-17T06:02:36.423Z,26.41
2022-08-17T06:03:32.277Z,26.43
2022-08-17T06:04:13.724Z,26.38
2022-08-17T06:04:56.194Z,26.30
2022-08-17T06:05:37.844Z,26.35
2022-08-17T06:06:31.379Z,26.35
2022-08-17T06:07:18.003Z,26.26
2022-08-17T06:08:14.725Z,26.26
2022-08-17T06:08:53.757Z,26.27
2022-08-17T06:09:34.006Z,26.26
2022-08-17T06:10:24.540Z,26.27
2022-08-17T06:11:13.583Z,26.24
2022-08-17T06:11:53.339Z,26.27
2022-08-17T06:12:28.722Z,26.27
2022-08-17T06:15:12.404Z,26.26
2022-08-17T06:16:25.919Z,26.28
2022-08-17T06:20:30.449Z,26.26
2022-08-17T06:30:21.209Z,26.26
2022-08-17T11:22:42.476Z,26.21
2022-08-17T11:23:31.924Z,26.17
2022-08-17T11:24:11.751Z,26.17
2022-08-17T11:24:53.792Z,26.12
2022-08-17T11:25:49.520Z,26.12
2022-08-17T11:26:32.903Z,26.15
2022-08-17T11:27:40.049Z,26.17
2022-08-17T11:28:39.645Z,26.14
2022-08-17T11:29:28.014Z,26.11
2022-08-17T11:31:07.028Z,26.14
2022-08-17T11:31:54.760Z,26.10
2022-08-17T11:32:48.765Z,26.08
2022-08-17T11:33:31.976Z,26.11
2022-08-17T11:34:27.616Z,26.02
2022-08-17T11:35:26.851Z,26.07
2022-08-17T11:36:47.113Z,26.12
2022-08-17T11:37:31.652Z,26.05
2022-08-17T11:38:16.332Z,26.13
2022-08-17T11:39:13.021Z,26.15
2022-08-17T11:40:17.699Z,26.02
2022-08-17T11:41:22.973Z,26.07
2022-08-17T11:42:26.198Z,26.06
2022-08-17T11:43:18.639Z,26.05
2022-08-17T11:45:32.285Z,26.10
2022-08-17T11:46:44.296Z,26.02
2022-08-17T11:47:28.454Z,26.20
2022-08-17T11:48:28.174Z,26.27
2022-08-17T11:49:14.318Z,26.16
2022-08-17T11:49:55.791Z,26.15
2022-08-17T11:50:53.209Z,26.10
2022-08-17T11:52:07.591Z,26.10
2022-08-17T11:52:56.413Z,26.11
2022-08-17T11:53:39.775Z,26.09
2022-08-17T11:54:32.740Z,26.08
2022-08-17T11:55:35.425Z,26.11
2022-08-17T11:56:30.768Z,26.06
2022-08-17T11:57:34.342Z,26.15
2022-08-17T11:58:37.920Z,26.22
2022-08-17T11:59:33.127Z,26.22
2022-08-17T12:00:31.208Z,26.22
2022-08-17T12:01:16.141Z,26.12
2022-08-17T12:02:00.431Z,26.13
2022-08-17T12:02:48.098Z,26.11
2022-08-17T12:03:26.971Z,26.21
2022-08-17T12:04:29.131Z,26.06
2022-08-17T12:05:20.992Z,26.16
2022-08-17T12:06:18.173Z,26.09
2022-08-17T12:07:08.598Z,26.12
2022-08-17T12:08:21.181Z,26.19
2022-08-17T12:09:18.702Z,26.17
2022-08-17T12:10:09.213Z,26.30
2022-08-17T12:11:56.248Z,26.26
2022-08-17T12:13:30.620Z,26.10
2022-08-17T12:14:35.694Z,26.10
2022-08-17T12:15:38.263Z,26.14
2022-08-17T12:16:44.689Z,26.22
2022-08-17T12:17:41.244Z,26.21
2022-08-17T12:18:33.883Z,26.28
2022-08-17T12:19:27.787Z,26.26
2022-08-17T12:20:13.874Z,26.26
2022-08-17T12:21:12.428Z,26.25
2022-08-17T12:22:15.483Z,26.22
2022-08-17T12:23:15.404Z,26.23
2022-08-17T12:28:04.342Z,26.18
2022-08-17T12:28:54.925Z,26.09
2022-08-17T12:29:44.380Z,26.19
2022-08-17T12:31:57.166Z,26.20
2022-08-17T12:32:58.009Z,26.23
2022-08-17T12:33:44.953Z,26.21
2022-08-17T12:34:40.965Z,26.23
2022-08-17T12:35:33.371Z,26.22
2022-08-17T12:36:08.989Z,26.22
2022-08-17T12:36:50.051Z,26.24
2022-08-17T12:37:41.732Z,26.23
2022-08-17T12:38:36.079Z,26.19
2022-08-17T12:40:43.422Z,26.15
2022-08-17T12:41:33.570Z,26.15
2022-08-17T12:42:30.476Z,26.23
2022-08-17T12:43:33.882Z,26.16
2022-08-17T12:44:50.070Z,26.21
2022-08-17T12:45:53.041Z,26.19
2022-08-17T12:46:30.617Z,26.25
2022-08-17T12:47:21.600Z,26.33
2022-08-17T12:48:03.886Z,26.29
2022-08-17T12:48:59.979Z,26.34
2022-08-17T12:49:49.234Z,26.28
2022-08-17T12:50:28.485Z,26.28
2022-08-17T12:52:19.379Z,26.29
2022-08-17T12:53:11.601Z,26.20
2022-08-17T12:54:02.254Z,26.23
2022-08-17T12:54:46.760Z,26.23
2022-08-17T12:55:25.273Z,26.22
2022-08-17T12:56:21.283Z,26.22
2022-08-17T12:57:05.450Z,26.23
2022-08-17T12:57:56.557Z,26.20
2022-08-17T12:58:54.662Z,26.35
2022-08-17T12:59:37.465Z,26.27
2022-08-17T13:00:17.464Z,26.25
2022-08-17T13:01:02.990Z,26.33
2022-08-17T13:01:50.015Z,26.25
2022-08-17T13:02:28.398Z,26.27
2022-08-17T13:04:03.977Z,26.30
2022-08-17T13:05:08.821Z,26.28
2022-08-17T13:06:15.101Z,26.22
2022-08-17T13:08:36.363Z,26.26
2022-08-17T13:09:35.743Z,26.27
2022-08-17T13:10:32.776Z,26.27
2022-08-17T13:12:49.555Z,26.21
2022-08-17T13:13:25.983Z,26.20
2022-08-17T13:14:16.127Z,26.17
2022-08-17T13:14:56.784Z,26.15
2022-08-17T13:16:48.555Z,26.21
2022-08-17T13:17:37.054Z,26.21
2022-08-17T13:18:42.717Z,26.15
2022-08-17T13:19:43.773Z,26.18
2022-08-17T13:20:39.670Z,26.19
2022-08-17T13:21:39.374Z,26.13
2022-08-17T13:22:18.906Z,26.12
2022-08-17T13:23:12.377Z,26.15
2022-08-17T13:24:11.415Z,26.12
2022-08-17T13:25:10.483Z,26.12
2022-08-17T13:26:10.781Z,26.16
2022-08-17T13:27:07.753Z,26.18
2022-08-17T13:27:59.100Z,26.11
2022-08-17T13:28:54.174Z,26.20
2022-08-17T13:29:36.039Z,26.23
2022-08-17T13:30:26.597Z,26.24
2022-08-17T13:31:28.044Z,26.21
2022-08-17T13:33:43.710Z,26.16
2022-08-17T13:34:31.505Z,26.19
2022-08-17T13:35:38.922Z,26.21
2022-08-17T13:38:47.760Z,26.18
2022-08-17T13:42:05.701Z,26.15
2022-08-17T13:42:56.351Z,26.13
2022-08-17T13:44:06.436Z,26.18
2022-08-17T13:46:04.263Z,26.18
2022-08-17T13:48:21.023Z,26.20
2022-08-17T13:49:14.147Z,26.20
2022-08-17T13:50:07.027Z,26.23
2022-08-17T13:50:51.419Z,26.21
2022-08-17T13:51:40.204Z,26.20
2022-08-17T13:52:18.168Z,26.20
2022-08-17T13:54:01.704Z,26.25
2022-08-17T13:54:55.606Z,26.20